createdAt,value
2019-02-21T00:00:11.751Z,1019.64
2019-02-21T00:01:11.662Z,1019.69
2019-02-21T00:02:11.656Z,1019.66
2019-02-21T00:03:11.699Z,1019.67
2019-02-21T00:04:11.626Z,1019.65
2019-02-21T00:05:11.621Z,1019.66
2019-02-21T00:06:11.667Z,1019.65
2019-02-21T00:07:11.680Z,1019.64
2019-02-21T00:08:11.588Z,1019.68
2019-02-21T00:09:11.590Z,1019.69
2019-02-21T00:10:11.562Z,1019.69
2019-02-21T00:11:11.591Z,1019.71
2019-02-21T00:12:11.547Z,1019.65
2019-02-21T00:13:11.558Z,1019.69
2019-02-21T00:14:11.533Z,1019.67
2019-02-21T00:15:11.516Z,1019.71
2019-02-21T00:16:11.573Z,1019.74
2019-02-21T00:17:11.492Z,1019.71
2019-02-21T00:18:11.476Z,1019.65
2019-02-21T00:19:11.487Z,1019.61
2019-02-21T00:20:11.461Z,1019.67
2019-02-21T00:21:11.451Z,1019.65
2019-02-21T00:22:11.502Z,1019.69
2019-02-21T00:23:11.427Z,1019.66
2019-02-21T00:24:11.473Z,1019.64
2019-02-21T00:25:11.405Z,1019.64
2019-02-21T00:26:11.422Z,1019.69
2019-02-21T00:27:11.398Z,1019.72
2019-02-21T00:28:11.418Z,1019.70
2019-02-21T00:29:11.357Z,1019.69
2019-02-21T00:30:11.346Z,1019.78
2019-02-21T00:31:11.356Z,1019.74
2019-02-21T00:32:11.333Z,1019.77
2019-02-21T00:33:11.349Z,1019.71
2019-02-21T00:34:11.308Z,1019.75
2019-02-21T00:35:11.299Z,1019.72
2019-02-21T00:36:11.302Z,1019.73
2019-02-21T00:37:11.324Z,1019.72
2019-02-21T00:38:11.284Z,1019.70
2019-02-21T00:39:11.257Z,1019.73
2019-02-21T00:40:11.293Z,1019.74
2019-02-21T00:41:11.231Z,1019.75
2019-02-21T00:42:11.217Z,1019.73
2019-02-21T00:43:11.249Z,1019.68
2019-02-21T00:44:11.196Z,1019.69
2019-02-21T00:45:11.184Z,1019.72
2019-02-21T00:46:11.174Z,1019.69
2019-02-21T00:47:11.174Z,1019.74
2019-02-21T00:48:11.194Z,1019.72
2019-02-21T00:49:11.178Z,1019.67
2019-02-21T00:50:11.133Z,1019.63
2019-02-21T00:51:11.121Z,1019.67
2019-02-21T00:52:11.112Z,1019.65
2019-02-21T00:53:11.123Z,1019.65
2019-02-21T00:54:11.101Z,1019.67
2019-02-21T00:55:11.096Z,1019.66
2019-02-21T00:56:11.090Z,1019.66
2019-02-21T00:57:11.057Z,1019.69
2019-02-21T00:58:11.074Z,1019.71
2019-02-21T00:59:11.051Z,1019.75
2019-02-21T01:00:11.077Z,1019.68
2019-02-21T01:01:11.025Z,1019.69
2019-02-21T01:02:11.061Z,1019.68
2019-02-21T01:03:11.036Z,1019.67
2019-02-21T01:04:10.992Z,1019.70
2019-02-21T01:05:10.992Z,1019.65
2019-02-21T01:06:10.992Z,1019.67
2019-02-21T01:07:11.001Z,1019.65
2019-02-21T01:08:10.975Z,1019.61
2019-02-21T01:09:10.984Z,1019.66
2019-02-21T01:10:10.933Z,1019.67
2019-02-21T01:11:10.909Z,1019.65
2019-02-21T01:12:10.910Z,1019.66
2019-02-21T01:13:10.925Z,1019.68
2019-02-21T01:14:10.897Z,1019.64
2019-02-21T01:15:10.863Z,1019.69
2019-02-21T01:16:10.852Z,1019.69
2019-02-21T01:17:10.843Z,1019.68
2019-02-21T01:18:10.853Z,1019.73
2019-02-21T01:19:10.835Z,1019.72
2019-02-21T01:20:10.842Z,1019.68
2019-02-21T01:21:10.809Z,1019.70
2019-02-21T01:22:10.808Z,1019.66
2019-02-21T01:23:10.807Z,1019.69
2019-02-21T01:24:10.770Z,1019.69
2019-02-21T01:25:10.764Z,1019.67
2019-02-21T01:26:10.766Z,1019.68
2019-02-21T01:27:10.753Z,1019.70
2019-02-21T01:28:10.773Z,1019.67
2019-02-21T01:29:10.715Z,1019.67
2019-02-21T01:30:10.790Z,1019.67
2019-02-21T01:31:10.693Z,1019.70
2019-02-21T01:32:10.687Z,1019.73
2019-02-21T01:33:10.676Z,1019.76
2019-02-21T01:34:10.697Z,1019.70
2019-02-21T01:35:10.666Z,1019.73
2019-02-21T01:36:10.648Z,1019.76
2019-02-21T01:37:10.642Z,1019.70
2019-02-21T01:38:10.624Z,1019.67
2019-02-21T01:39:10.649Z,1019.67
2019-02-21T01:40:10.651Z,1019.68
2019-02-21T01:41:10.593Z,1019.72
2019-02-21T01:42:10.587Z,1019.73
2019-02-21T01:43:10.684Z,1019.72
2019-02-21T01:44:10.556Z,1019.71
2019-02-21T01:45:10.597Z,1019.71
2019-02-21T01:46:10.550Z,1019.76
2019-02-21T01:47:10.540Z,1019.76
2019-02-21T01:48:10.541Z,1019.78
2019-02-21T01:49:10.522Z,1019.79
2019-02-21T01:50:10.520Z,1019.75
2019-02-21T01:51:10.594Z,1019.73
2019-02-21T01:52:10.473Z,1019.82
2019-02-21T01:53:10.476Z,1019.77
2019-02-21T01:54:10.456Z,1019.77
2019-02-21T01:55:10.442Z,1019.78
2019-02-21T01:56:10.456Z,1019.79
2019-02-21T01:57:10.434Z,1019.76
2019-02-21T01:58:10.405Z,1019.81
2019-02-21T01:59:10.417Z,1019.77
2019-02-21T02:00:10.384Z,1019.84
2019-02-21T02:01:10.403Z,1019.81
2019-02-21T02:02:10.397Z,1019.84
2019-02-21T02:03:10.357Z,1019.91
2019-02-21T02:04:10.379Z,1019.92
2019-02-21T02:05:10.329Z,1019.88
2019-02-21T02:06:10.349Z,1019.89
2019-02-21T02:07:10.307Z,1019.87
2019-02-21T02:08:10.306Z,1019.82
2019-02-21T02:09:10.288Z,1019.86
2019-02-21T02:10:10.283Z,1019.90
2019-02-21T02:11:10.311Z,1019.87
2019-02-21T02:12:10.284Z,1019.89
2019-02-21T02:13:21.681Z,1019.89
2019-02-21T02:14:11.234Z,1019.95
2019-02-21T02:15:10.227Z,1019.92
2019-02-21T02:16:10.257Z,1019.88
2019-02-21T02:17:10.209Z,1019.93
2019-02-21T02:18:10.234Z,1019.94
2019-02-21T02:19:10.239Z,1019.89
2019-02-21T02:20:10.202Z,1019.92
2019-02-21T02:21:10.156Z,1019.89
2019-02-21T02:22:10.170Z,1019.82
2019-02-21T02:23:10.169Z,1019.87
2019-02-21T02:24:10.126Z,1019.85
2019-02-21T02:25:10.119Z,1019.81
2019-02-21T02:26:10.107Z,1019.82
2019-02-21T02:27:10.119Z,1019.80
2019-02-21T02:28:10.137Z,1019.83
2019-02-21T02:29:10.074Z,1019.81
2019-02-21T02:30:10.069Z,1019.83
2019-02-21T02:31:21.848Z,1019.81
2019-02-21T02:32:11.171Z,1019.82
2019-02-21T02:33:10.031Z,1019.85
2019-02-21T02:34:10.041Z,1019.81
2019-02-21T02:35:10.012Z,1019.79
2019-02-21T02:36:10.009Z,1019.78
2019-02-21T02:37:10.054Z,1019.75
2019-02-21T02:38:10.000Z,1019.75
2019-02-21T02:39:09.971Z,1019.74
2019-02-21T02:40:09.970Z,1019.77
2019-02-21T02:41:09.966Z,1019.78
2019-02-21T02:42:09.938Z,1019.76
2019-02-21T02:43:09.962Z,1019.76
2019-02-21T02:44:09.962Z,1019.77
2019-02-21T02:45:09.899Z,1019.75
2019-02-21T02:46:09.900Z,1019.81
2019-02-21T02:47:09.878Z,1019.79
2019-02-21T02:48:10.014Z,1019.76
2019-02-21T02:49:09.862Z,1019.78
2019-02-21T02:50:09.847Z,1019.75
2019-02-21T02:51:09.877Z,1019.77
2019-02-21T02:52:09.830Z,1019.70
2019-02-21T02:53:09.845Z,1019.66
2019-02-21T02:54:09.826Z,1019.70
2019-02-21T02:55:09.830Z,1019.73
2019-02-21T02:56:09.781Z,1019.73
2019-02-21T02:57:09.782Z,1019.69
2019-02-21T02:58:09.793Z,1019.72
2019-02-21T02:59:09.753Z,1019.74
2019-02-21T03:00:09.776Z,1019.70
2019-02-21T03:01:09.757Z,1019.81
2019-02-21T03:02:09.739Z,1019.80
2019-02-21T03:03:09.711Z,1019.78
2019-02-21T03:04:09.759Z,1019.78
2019-02-21T03:05:09.687Z,1019.85
2019-02-21T03:06:09.698Z,1019.83
2019-02-21T03:07:09.664Z,1019.85
2019-02-21T03:08:09.651Z,1019.82
2019-02-21T03:09:09.669Z,1019.80
2019-02-21T03:10:09.630Z,1019.79
2019-02-21T03:11:09.620Z,1019.81
2019-02-21T03:12:09.676Z,1019.83
2019-02-21T03:13:09.599Z,1019.85
2019-02-21T03:14:09.601Z,1019.89
2019-02-21T03:15:09.600Z,1019.87
2019-02-21T03:16:09.564Z,1019.87
2019-02-21T03:17:09.575Z,1019.87
2019-02-21T03:18:09.587Z,1019.82
2019-02-21T03:19:09.537Z,1019.86
2019-02-21T03:20:09.553Z,1019.81
2019-02-21T03:21:09.513Z,1019.83
2019-02-21T03:22:09.501Z,1019.81
2019-02-21T03:23:09.498Z,1019.88
2019-02-21T03:24:09.485Z,1019.85
2019-02-21T03:25:09.509Z,1019.84
2019-02-21T03:26:09.480Z,1019.80
2019-02-21T03:27:09.487Z,1019.82
2019-02-21T03:28:09.448Z,1019.82
2019-02-21T03:29:09.475Z,1019.82
2019-02-21T03:30:12.264Z,1019.80
2019-02-21T03:31:09.476Z,1019.80
2019-02-21T03:32:09.423Z,1019.76
2019-02-21T03:33:09.385Z,1019.81
2019-02-21T03:34:09.434Z,1019.83
2019-02-21T03:35:09.391Z,1019.79
2019-02-21T03:36:09.400Z,1019.75
2019-02-21T03:37:09.345Z,1019.84
2019-02-21T03:38:09.333Z,1019.81
2019-02-21T03:39:09.339Z,1019.83
2019-02-21T03:40:09.337Z,1019.83
2019-02-21T03:41:09.336Z,1019.87
2019-02-21T03:42:09.300Z,1019.83
2019-02-21T03:43:09.297Z,1019.87
2019-02-21T03:44:09.283Z,1019.84
2019-02-21T03:45:09.257Z,1019.85
2019-02-21T03:46:09.282Z,1019.87
2019-02-21T03:47:09.251Z,1019.84
2019-02-21T03:48:09.266Z,1019.85
2019-02-21T03:49:09.217Z,1019.87
2019-02-21T03:50:09.224Z,1019.82
2019-02-21T03:51:09.237Z,1019.87
2019-02-21T03:52:09.198Z,1019.86
2019-02-21T03:53:09.195Z,1019.86
2019-02-21T03:54:09.168Z,1019.88
2019-02-21T03:55:09.166Z,1019.89
2019-02-21T03:56:09.172Z,1019.90
2019-02-21T03:57:09.131Z,1019.91
2019-02-21T03:58:09.120Z,1019.87
2019-02-21T03:59:09.265Z,1019.88
2019-02-21T04:00:09.126Z,1019.82
2019-02-21T04:01:09.120Z,1019.84
2019-02-21T04:02:09.079Z,1019.79
2019-02-21T04:03:09.072Z,1019.84
2019-02-21T04:04:09.084Z,1019.87
2019-02-21T04:05:09.052Z,1019.89
2019-02-21T04:06:09.067Z,1019.88
2019-02-21T04:07:09.027Z,1019.91
2019-02-21T04:08:09.018Z,1019.85
2019-02-21T04:09:09.011Z,1019.87
2019-02-21T04:10:09.011Z,1019.83
2019-02-21T04:11:09.073Z,1019.81
2019-02-21T04:12:08.973Z,1019.81
2019-02-21T04:13:08.967Z,1019.89
2019-02-21T04:14:08.978Z,1019.84
2019-02-21T04:15:08.941Z,1019.84
2019-02-21T04:16:08.961Z,1019.86
2019-02-21T04:17:08.945Z,1019.85
2019-02-21T04:18:08.917Z,1019.84
2019-02-21T04:19:08.912Z,1019.90
2019-02-21T04:20:08.895Z,1019.88
2019-02-21T04:21:08.887Z,1019.90
2019-02-21T04:22:08.902Z,1019.91
2019-02-21T04:23:08.956Z,1019.93
2019-02-21T04:24:08.851Z,1019.93
2019-02-21T04:25:08.847Z,1019.96
2019-02-21T04:26:08.850Z,1019.92
2019-02-21T04:27:08.819Z,1019.86
2019-02-21T04:28:08.868Z,1019.89
2019-02-21T04:29:08.808Z,1019.88
2019-02-21T04:30:08.798Z,1019.87
2019-02-21T04:31:08.777Z,1019.89
2019-02-21T04:32:16.594Z,1019.86
2019-02-21T04:33:09.783Z,1019.87
2019-02-21T04:34:08.791Z,1019.82
2019-02-21T04:35:08.785Z,1019.80
2019-02-21T04:36:08.725Z,1019.72
2019-02-21T04:37:08.817Z,1019.69
2019-02-21T04:38:08.727Z,1019.69
2019-02-21T04:39:08.689Z,1019.68
2019-02-21T04:40:08.720Z,1019.72
2019-02-21T04:41:08.730Z,1019.62
2019-02-21T04:42:08.664Z,1019.70
2019-02-21T04:43:08.648Z,1019.72
2019-02-21T04:44:08.662Z,1019.69
2019-02-21T04:45:08.623Z,1019.70
2019-02-21T04:46:08.674Z,1019.71
2019-02-21T04:47:08.627Z,1019.67
2019-02-21T04:48:08.597Z,1019.74
2019-02-21T04:49:08.614Z,1019.75
2019-02-21T04:50:08.588Z,1019.70
2019-02-21T04:51:08.575Z,1019.72
2019-02-21T04:52:08.561Z,1019.72
2019-02-21T04:53:08.548Z,1019.68
2019-02-21T04:54:08.531Z,1019.69
2019-02-21T04:55:08.550Z,1019.68
2019-02-21T04:56:08.516Z,1019.67
2019-02-21T04:57:08.506Z,1019.68
2019-02-21T04:58:08.499Z,1019.62
2019-02-21T04:59:08.520Z,1019.65
2019-02-21T05:00:08.507Z,1019.66
2019-02-21T05:01:08.466Z,1019.61
2019-02-21T05:02:08.456Z,1019.64
2019-02-21T05:03:08.436Z,1019.60
2019-02-21T05:04:08.443Z,1019.63
2019-02-21T05:05:08.462Z,1019.64
2019-02-21T05:06:08.412Z,1019.66
2019-02-21T05:07:08.487Z,1019.69
2019-02-21T05:08:08.382Z,1019.66
2019-02-21T05:09:08.387Z,1019.56
2019-02-21T05:10:08.438Z,1019.63
2019-02-21T05:11:08.352Z,1019.65
2019-02-21T05:12:08.340Z,1019.65
2019-02-21T05:13:08.330Z,1019.65
2019-02-21T05:14:08.325Z,1019.67
2019-02-21T05:15:08.315Z,1019.61
2019-02-21T05:16:08.330Z,1019.58
2019-02-21T05:17:08.308Z,1019.55
2019-02-21T05:18:08.281Z,1019.55
2019-02-21T05:19:08.271Z,1019.57
2019-02-21T05:20:08.268Z,1019.57
2019-02-21T05:21:08.275Z,1019.57
2019-02-21T05:22:08.286Z,1019.56
2019-02-21T05:23:08.224Z,1019.58
2019-02-21T05:24:08.226Z,1019.54
2019-02-21T05:25:08.219Z,1019.45
2019-02-21T05:26:08.240Z,1019.51
2019-02-21T05:27:08.196Z,1019.52
2019-02-21T05:28:08.215Z,1019.47
2019-02-21T05:29:08.189Z,1019.45
2019-02-21T05:30:08.170Z,1019.52
2019-02-21T05:31:08.166Z,1019.53
2019-02-21T05:32:08.139Z,1019.52
2019-02-21T05:33:08.127Z,1019.51
2019-02-21T05:34:08.155Z,1019.49
2019-02-21T05:35:08.099Z,1019.49
2019-02-21T05:36:08.134Z,1019.50
2019-02-21T05:37:08.097Z,1019.50
2019-02-21T05:38:08.069Z,1019.53
2019-02-21T05:39:08.061Z,1019.61
2019-02-21T05:40:08.070Z,1019.61
2019-02-21T05:41:08.036Z,1019.63
2019-02-21T05:42:08.056Z,1019.65
2019-02-21T05:43:08.014Z,1019.63
2019-02-21T05:44:08.003Z,1019.64
2019-02-21T05:45:10.747Z,1019.61
2019-02-21T05:46:08.004Z,1019.62
2019-02-21T05:47:08.020Z,1019.60
2019-02-21T05:48:07.971Z,1019.60
2019-02-21T05:49:07.952Z,1019.61
2019-02-21T05:50:08.096Z,1019.62
2019-02-21T05:51:07.952Z,1019.63
2019-02-21T05:52:07.967Z,1019.64
2019-02-21T05:53:07.971Z,1019.66
2019-02-21T05:54:07.899Z,1019.63
2019-02-21T05:55:07.912Z,1019.68
2019-02-21T05:56:07.875Z,1019.72
2019-02-21T05:57:07.877Z,1019.67
2019-02-21T05:58:07.902Z,1019.77
2019-02-21T05:59:07.860Z,1019.69
2019-02-21T06:00:07.837Z,1019.78
2019-02-21T06:01:07.827Z,1019.78
2019-02-21T06:02:07.814Z,1019.81
2019-02-21T06:03:07.844Z,1019.76
2019-02-21T06:04:07.814Z,1019.82
2019-02-21T06:05:08.804Z,1019.83
2019-02-21T06:06:07.801Z,1019.80
2019-02-21T06:07:09.876Z,1019.85
2019-02-21T06:08:07.750Z,1019.84
2019-02-21T06:09:07.775Z,1019.84
2019-02-21T06:10:07.740Z,1019.80
2019-02-21T06:11:07.818Z,1019.75
2019-02-21T06:12:07.710Z,1019.79
2019-02-21T06:13:07.707Z,1019.77
2019-02-21T06:14:07.688Z,1019.79
2019-02-21T06:15:07.718Z,1019.77
2019-02-21T06:16:07.680Z,1019.87
2019-02-21T06:17:07.717Z,1019.86
2019-02-21T06:18:07.667Z,1019.83
2019-02-21T06:19:07.636Z,1019.90
2019-02-21T06:20:07.652Z,1019.88
2019-02-21T06:21:07.626Z,1019.91
2019-02-21T06:22:10.689Z,1019.90
2019-02-21T06:23:07.676Z,1019.85
2019-02-21T06:24:07.585Z,1019.89
2019-02-21T06:25:07.630Z,1019.85
2019-02-21T06:26:07.565Z,1019.89
2019-02-21T06:27:07.560Z,1019.92
2019-02-21T06:28:07.562Z,1019.94
2019-02-21T06:29:09.782Z,1019.90
2019-02-21T06:30:07.635Z,1019.88
2019-02-21T06:31:07.508Z,1019.93
2019-02-21T06:32:14.201Z,1019.87
2019-02-21T06:33:08.489Z,1019.88
2019-02-21T06:34:07.476Z,1019.88
2019-02-21T06:35:07.515Z,1019.87
2019-02-21T06:36:07.474Z,1019.93
2019-02-21T06:37:07.456Z,1019.96
2019-02-21T06:38:07.445Z,1019.99
2019-02-21T06:39:07.426Z,1019.98
2019-02-21T06:40:07.487Z,1020.00
2019-02-21T06:41:07.419Z,1020.00
2019-02-21T06:42:07.397Z,1019.98
2019-02-21T06:43:07.408Z,1019.91
2019-02-21T06:44:07.383Z,1019.93
2019-02-21T06:45:07.365Z,1019.93
2019-02-21T06:46:07.398Z,1019.91
2019-02-21T06:47:07.340Z,1019.95
2019-02-21T06:48:07.332Z,1019.94
2019-02-21T06:49:07.327Z,1020.02
2019-02-21T06:50:07.314Z,1019.98
2019-02-21T06:51:07.371Z,1019.93
2019-02-21T06:52:07.287Z,1019.94
2019-02-21T06:53:07.307Z,1019.97
2019-02-21T06:54:07.287Z,1019.98
2019-02-21T06:55:07.259Z,1020.01
2019-02-21T06:56:07.282Z,1020.04
2019-02-21T06:57:07.239Z,1019.94
2019-02-21T06:58:07.227Z,1019.98
2019-02-21T06:59:07.232Z,1020.00
2019-02-21T07:00:07.215Z,1020.02
2019-02-21T07:01:07.251Z,1020.03
2019-02-21T07:02:07.185Z,1020.04
2019-02-21T07:03:15.403Z,1020.00
2019-02-21T07:04:08.164Z,1020.03
2019-02-21T07:05:07.153Z,1020.04
2019-02-21T07:06:07.225Z,1020.07
2019-02-21T07:07:07.159Z,1020.10
2019-02-21T07:08:08.859Z,1020.03
2019-02-21T07:09:07.110Z,1020.06
2019-02-21T07:10:07.101Z,1020.06
2019-02-21T07:11:07.100Z,1020.14
2019-02-21T07:12:07.104Z,1020.15
2019-02-21T07:13:07.100Z,1020.15
2019-02-21T07:14:07.075Z,1020.20
2019-02-21T07:15:07.049Z,1020.18
2019-02-21T07:16:07.042Z,1020.17
2019-02-21T07:17:08.530Z,1020.20
2019-02-21T07:18:07.037Z,1020.14
2019-02-21T07:19:07.087Z,1020.21
2019-02-21T07:20:06.991Z,1020.21
2019-02-21T07:21:07.014Z,1020.22
2019-02-21T07:22:07.053Z,1020.16
2019-02-21T07:23:06.985Z,1020.16
2019-02-21T07:24:06.984Z,1020.17
2019-02-21T07:25:06.990Z,1020.16
2019-02-21T07:26:06.931Z,1020.21
2019-02-21T07:27:06.930Z,1020.21
2019-02-21T07:28:11.716Z,1020.26
2019-02-21T07:29:07.902Z,1020.27
2019-02-21T07:30:06.888Z,1020.27
2019-02-21T07:31:06.924Z,1020.29
2019-02-21T07:32:06.868Z,1020.28
2019-02-21T07:33:06.877Z,1020.31
2019-02-21T07:34:07.148Z,1020.32
2019-02-21T07:35:06.838Z,1020.31
2019-02-21T07:36:06.828Z,1020.35
2019-02-21T07:37:17.848Z,1020.33
2019-02-21T07:38:07.830Z,1020.35
2019-02-21T07:39:16.923Z,1020.33
2019-02-21T07:40:07.782Z,1020.33
2019-02-21T07:41:06.781Z,1020.37
2019-02-21T07:42:06.775Z,1020.42
2019-02-21T07:43:06.837Z,1020.42
2019-02-21T07:44:12.068Z,1020.40
2019-02-21T07:45:07.834Z,1020.40
2019-02-21T07:46:07.046Z,1020.36
2019-02-21T07:47:06.719Z,1020.37
2019-02-21T07:48:06.728Z,1020.40
2019-02-21T07:49:06.716Z,1020.41
2019-02-21T07:50:06.678Z,1020.37
2019-02-21T07:51:06.674Z,1020.37
2019-02-21T07:52:06.659Z,1020.45
2019-02-21T07:53:06.647Z,1020.44
2019-02-21T07:54:06.660Z,1020.46
2019-02-21T07:55:06.624Z,1020.44
2019-02-21T07:56:06.632Z,1020.49
2019-02-21T07:57:08.451Z,1020.52
2019-02-21T07:58:06.622Z,1020.48
2019-02-21T07:59:06.610Z,1020.52
2019-02-21T08:00:06.598Z,1020.47
2019-02-21T08:01:06.578Z,1020.49
2019-02-21T08:02:06.561Z,1020.54
2019-02-21T08:03:09.074Z,1020.61
2019-02-21T08:04:06.540Z,1020.57
2019-02-21T08:05:06.538Z,1020.56
2019-02-21T08:06:06.506Z,1020.61
2019-02-21T08:07:06.498Z,1020.61
2019-02-21T08:08:09.131Z,1020.62
2019-02-21T08:09:06.473Z,1020.65
2019-02-21T08:10:06.512Z,1020.61
2019-02-21T08:11:07.234Z,1020.67
2019-02-21T08:12:06.461Z,1020.73
2019-02-21T08:13:06.430Z,1020.70
2019-02-21T08:14:06.448Z,1020.72
2019-02-21T08:15:06.445Z,1020.74
2019-02-21T08:16:06.396Z,1020.77
2019-02-21T08:17:06.395Z,1020.73
2019-02-21T08:18:06.375Z,1020.73
2019-02-21T08:19:06.361Z,1020.75
2019-02-21T08:20:08.769Z,1020.78
2019-02-21T08:21:06.377Z,1020.78
2019-02-21T08:22:06.330Z,1020.76
2019-02-21T08:23:06.327Z,1020.75
2019-02-21T08:24:06.314Z,1020.74
2019-02-21T08:25:06.322Z,1020.73
2019-02-21T08:26:06.287Z,1020.69
2019-02-21T08:27:06.303Z,1020.74
2019-02-21T08:28:06.330Z,1020.74
2019-02-21T08:29:06.393Z,1020.74
2019-02-21T08:30:06.323Z,1020.76
2019-02-21T08:31:06.238Z,1020.78
2019-02-21T08:32:06.220Z,1020.75
2019-02-21T08:33:06.286Z,1020.80
2019-02-21T08:34:06.212Z,1020.66
2019-02-21T08:35:06.977Z,1020.70
2019-02-21T08:36:06.182Z,1020.68
2019-02-21T08:37:08.661Z,1020.71
2019-02-21T08:38:06.156Z,1020.65
2019-02-21T08:39:06.147Z,1020.72
2019-02-21T08:40:06.164Z,1020.72
2019-02-21T08:41:06.133Z,1020.72
2019-02-21T08:42:06.113Z,1020.76
2019-02-21T08:43:06.108Z,1020.77
2019-02-21T08:44:06.122Z,1020.77
2019-02-21T08:45:06.116Z,1020.76
2019-02-21T08:46:06.086Z,1020.77
2019-02-21T08:47:06.059Z,1020.77
2019-02-21T08:48:06.071Z,1020.76
2019-02-21T08:49:06.039Z,1020.81
2019-02-21T08:50:06.034Z,1020.74
2019-02-21T08:51:06.434Z,1020.80
2019-02-21T08:52:06.005Z,1020.76
2019-02-21T08:53:05.995Z,1020.82
2019-02-21T08:54:06.184Z,1020.81
2019-02-21T08:55:05.977Z,1020.81
2019-02-21T08:56:06.028Z,1020.81
2019-02-21T08:57:05.949Z,1020.90
2019-02-21T08:58:07.821Z,1020.90
2019-02-21T08:59:05.932Z,1020.88
2019-02-21T09:00:05.918Z,1020.91
2019-02-21T09:01:05.911Z,1020.90
2019-02-21T09:02:05.940Z,1020.93
2019-02-21T09:03:05.895Z,1020.93
2019-02-21T09:04:13.345Z,1020.92
2019-02-21T09:05:09.346Z,1020.98
2019-02-21T09:06:05.859Z,1020.97
2019-02-21T09:07:05.917Z,1020.92
2019-02-21T09:08:05.850Z,1020.94
2019-02-21T09:09:05.874Z,1020.89
2019-02-21T09:10:05.814Z,1020.92
2019-02-21T09:11:05.802Z,1020.94
2019-02-21T09:12:06.004Z,1020.91
2019-02-21T09:13:05.790Z,1020.95
2019-02-21T09:14:05.782Z,1020.92
2019-02-21T09:15:05.759Z,1020.96
2019-02-21T09:16:05.752Z,1020.91
2019-02-21T09:17:05.794Z,1020.93
2019-02-21T09:18:05.724Z,1020.94
2019-02-21T09:19:05.740Z,1020.95
2019-02-21T09:20:05.702Z,1020.97
2019-02-21T09:21:05.694Z,1020.92
2019-02-21T09:22:05.685Z,1020.93
2019-02-21T09:23:05.696Z,1020.91
2019-02-21T09:24:05.658Z,1020.93
2019-02-21T09:25:05.682Z,1020.94
2019-02-21T09:26:05.635Z,1020.86
2019-02-21T09:27:05.628Z,1020.92
2019-02-21T09:28:05.645Z,1020.94
2019-02-21T09:29:05.610Z,1020.87
2019-02-21T09:30:05.607Z,1020.92
2019-02-21T09:31:05.719Z,1020.90
2019-02-21T09:32:06.939Z,1020.99
2019-02-21T09:33:14.781Z,1020.98
2019-02-21T09:34:06.614Z,1020.96
2019-02-21T09:35:05.543Z,1020.95
2019-02-21T09:36:05.534Z,1020.92
2019-02-21T09:37:05.653Z,1020.96
2019-02-21T09:38:05.583Z,1020.90
2019-02-21T09:39:05.499Z,1020.97
2019-02-21T09:40:05.502Z,1020.97
2019-02-21T09:41:05.478Z,1021.03
2019-02-21T09:42:05.466Z,1021.00
2019-02-21T09:43:05.478Z,1020.98
2019-02-21T09:44:05.488Z,1020.99
2019-02-21T09:45:05.430Z,1020.99
2019-02-21T09:46:05.422Z,1020.97
2019-02-21T09:47:05.437Z,1020.96
2019-02-21T09:48:05.428Z,1020.97
2019-02-21T09:49:05.393Z,1020.98
2019-02-21T09:50:05.385Z,1020.98
2019-02-21T09:51:05.373Z,1020.96
2019-02-21T09:52:05.381Z,1020.94
2019-02-21T09:53:05.429Z,1020.94
2019-02-21T09:54:05.354Z,1020.89
2019-02-21T09:55:05.324Z,1020.86
2019-02-21T09:56:05.320Z,1020.85
2019-02-21T09:57:12.831Z,1020.87
2019-02-21T09:58:06.343Z,1020.90
2019-02-21T09:59:05.320Z,1020.88
2019-02-21T10:00:05.273Z,1020.93
2019-02-21T10:01:05.255Z,1020.94
2019-02-21T10:02:05.252Z,1020.95
2019-02-21T10:03:05.301Z,1020.96
2019-02-21T10:04:05.237Z,1020.97
2019-02-21T10:05:05.726Z,1020.99
2019-02-21T10:06:05.203Z,1020.95
2019-02-21T10:07:05.194Z,1020.94
2019-02-21T10:08:05.225Z,1020.98
2019-02-21T10:09:05.177Z,1021.04
2019-02-21T10:10:05.162Z,1021.00
2019-02-21T10:11:05.164Z,1020.99
2019-02-21T10:12:05.145Z,1020.97
2019-02-21T10:13:05.178Z,1020.97
2019-02-21T10:14:05.117Z,1020.95
2019-02-21T10:15:05.103Z,1020.90
2019-02-21T10:16:05.114Z,1021.01
2019-02-21T10:17:05.102Z,1020.99
2019-02-21T10:18:05.187Z,1020.97
2019-02-21T10:19:05.067Z,1021.05
2019-02-21T10:20:05.052Z,1021.11
2019-02-21T10:21:05.036Z,1021.12
2019-02-21T10:22:05.034Z,1021.17
2019-02-21T10:23:05.043Z,1021.15
2019-02-21T10:24:05.006Z,1021.14
2019-02-21T10:25:05.003Z,1021.13
2019-02-21T10:26:05.017Z,1021.17
2019-02-21T10:27:04.974Z,1021.14
2019-02-21T10:28:04.985Z,1021.19
2019-02-21T10:29:04.965Z,1021.19
2019-02-21T10:30:04.945Z,1021.24
2019-02-21T10:31:04.941Z,1021.21
2019-02-21T10:32:04.949Z,1021.25
2019-02-21T10:33:04.939Z,1021.26
2019-02-21T10:34:04.897Z,1021.25
2019-02-21T10:35:04.890Z,1021.31
2019-02-21T10:36:04.899Z,1021.29
2019-02-21T10:37:04.864Z,1021.26
2019-02-21T10:38:04.893Z,1021.24
2019-02-21T10:39:04.908Z,1021.26
2019-02-21T10:40:04.833Z,1021.28
2019-02-21T10:41:04.866Z,1021.30
2019-02-21T10:42:04.814Z,1021.26
2019-02-21T10:43:04.835Z,1021.18
2019-02-21T10:44:04.794Z,1021.22
2019-02-21T10:45:04.779Z,1021.19
2019-02-21T10:46:04.820Z,1021.09
2019-02-21T10:47:04.759Z,1021.12
2019-02-21T10:48:04.785Z,1021.05
2019-02-21T10:49:04.746Z,1021.00
2019-02-21T10:50:04.726Z,1020.98
2019-02-21T10:51:04.730Z,1020.97
2019-02-21T10:52:04.713Z,1020.94
2019-02-21T10:53:04.698Z,1020.93
2019-02-21T10:54:04.706Z,1021.00
2019-02-21T10:55:04.668Z,1020.96
2019-02-21T10:56:04.655Z,1020.97
2019-02-21T10:57:04.647Z,1020.90
2019-02-21T10:58:04.646Z,1020.90
2019-02-21T10:59:04.681Z,1020.87
2019-02-21T11:00:04.652Z,1020.85
2019-02-21T11:01:04.605Z,1020.85
2019-02-21T11:02:04.594Z,1020.90
2019-02-21T11:03:04.584Z,1020.90
2019-02-21T11:04:04.575Z,1020.92
2019-02-21T11:05:04.595Z,1020.85
2019-02-21T11:06:04.628Z,1020.97
2019-02-21T11:07:04.540Z,1020.97
2019-02-21T11:08:04.526Z,1020.95
2019-02-21T11:09:04.519Z,1020.94
2019-02-21T11:10:04.567Z,1020.98
2019-02-21T11:11:04.501Z,1020.92
2019-02-21T11:12:04.518Z,1020.86
2019-02-21T11:13:04.501Z,1020.84
2019-02-21T11:14:04.506Z,1020.82
2019-02-21T11:15:04.462Z,1020.78
2019-02-21T11:16:04.463Z,1020.76
2019-02-21T11:17:04.448Z,1020.66
2019-02-21T11:18:04.500Z,1020.64
2019-02-21T11:19:04.422Z,1020.63
2019-02-21T11:20:04.436Z,1020.65
2019-02-21T11:21:04.750Z,1020.65
2019-02-21T11:22:04.430Z,1020.61
2019-02-21T11:23:06.497Z,1020.64
2019-02-21T11:24:04.354Z,1020.67
2019-02-21T11:25:04.366Z,1020.68
2019-02-21T11:26:04.352Z,1020.64
2019-02-21T11:27:04.329Z,1020.61
2019-02-21T11:28:04.323Z,1020.56
2019-02-21T11:29:04.311Z,1020.56
2019-02-21T11:30:04.294Z,1020.61
2019-02-21T11:31:04.306Z,1020.64
2019-02-21T11:32:04.327Z,1020.62
2019-02-21T11:33:04.255Z,1020.66
2019-02-21T11:34:04.261Z,1020.63
2019-02-21T11:35:06.542Z,1020.61
2019-02-21T11:36:04.245Z,1020.62
2019-02-21T11:37:04.210Z,1020.58
2019-02-21T11:38:04.237Z,1020.61
2019-02-21T11:39:04.223Z,1020.53
2019-02-21T11:40:05.596Z,1020.56
2019-02-21T11:41:04.211Z,1020.58
2019-02-21T11:42:04.161Z,1020.60
2019-02-21T11:43:04.188Z,1020.58
2019-02-21T11:44:04.140Z,1020.55
2019-02-21T11:45:04.147Z,1020.62
2019-02-21T11:46:04.138Z,1020.51
2019-02-21T11:47:04.102Z,1020.50
2019-02-21T11:48:04.111Z,1020.51
2019-02-21T11:49:04.103Z,1020.47
2019-02-21T11:50:04.076Z,1020.40
2019-02-21T11:51:04.082Z,1020.38
2019-02-21T11:52:10.114Z,1020.40
2019-02-21T11:53:05.071Z,1020.45
2019-02-21T11:54:04.028Z,1020.43
2019-02-21T11:55:04.091Z,1020.36
2019-02-21T11:56:04.028Z,1020.35
2019-02-21T11:57:03.991Z,1020.31
2019-02-21T11:58:03.993Z,1020.31
2019-02-21T11:59:03.985Z,1020.29
2019-02-21T12:00:03.964Z,1020.35
2019-02-21T12:01:04.053Z,1020.36
2019-02-21T12:02:03.971Z,1020.33
2019-02-21T12:03:03.946Z,1020.36
2019-02-21T12:04:03.933Z,1020.34
2019-02-21T12:05:03.918Z,1020.33